createdAt,value
2024-04-08T00:00:05.710Z,1.98
2024-04-08T00:02:36.054Z,2.13
2024-04-08T00:05:05.336Z,2.03
2024-04-08T00:07:38.800Z,1.60
2024-04-08T00:10:09.444Z,1.77
2024-04-08T00:12:41.780Z,1.85
2024-04-08T00:15:12.981Z,1.88
2024-04-08T00:17:46.551Z,2.00
2024-04-08T00:20:26.703Z,1.90
2024-04-08T00:23:19.514Z,2.13
2024-04-08T00:25:56.849Z,2.15
2024-04-08T00:28:27.804Z,1.63
2024-04-08T00:31:01.875Z,2.17
2024-04-08T00:33:34.430Z,2.05
2024-04-08T00:36:02.239Z,2.20
2024-04-08T00:38:34.825Z,1.90
2024-04-08T00:41:04.002Z,2.33
2024-04-08T00:43:34.285Z,1.92
2024-04-08T00:48:49.650Z,2.13
2024-04-08T00:51:21.882Z,2.17
2024-04-08T00:53:56.296Z,1.90
2024-04-08T00:56:27.241Z,1.67
2024-04-08T00:58:58.016Z,1.60
2024-04-08T01:01:27.738Z,2.05
2024-04-08T01:04:00.272Z,1.88
2024-04-08T01:06:28.749Z,1.70
2024-04-08T01:09:25.146Z,1.60
2024-04-08T01:11:52.945Z,2.03
2024-04-08T01:17:04.634Z,2.17
2024-04-08T01:19:40.003Z,1.90
2024-04-08T01:22:08.258Z,2.10
2024-04-08T01:25:05.608Z,1.90
2024-04-08T01:27:34.616Z,1.80
2024-04-08T01:30:08.196Z,1.92
2024-04-08T01:32:39.446Z,1.88
2024-04-08T01:35:09.610Z,1.60
2024-04-08T01:37:38.295Z,2.08
2024-04-08T01:40:13.943Z,2.00
2024-04-08T01:42:41.508Z,2.25
2024-04-08T01:45:12.054Z,1.85
2024-04-08T01:47:39.399Z,1.63
2024-04-08T01:50:17.552Z,2.17
2024-04-08T01:52:47.368Z,2.20
2024-04-08T01:55:24.389Z,1.60
2024-04-08T01:57:53.273Z,1.90
2024-04-08T02:00:24.328Z,1.70
2024-04-08T02:02:52.570Z,1.88
2024-04-08T02:05:25.582Z,2.20
2024-04-08T02:07:59.554Z,1.90
2024-04-08T02:10:33.648Z,1.90
2024-04-08T02:13:01.257Z,2.08
2024-04-08T02:15:52.546Z,2.17
2024-04-08T02:18:20.298Z,1.80
2024-04-08T02:20:54.857Z,2.10
2024-04-08T02:23:22.515Z,2.42
2024-04-08T02:25:55.583Z,1.80
2024-04-08T02:28:27.099Z,2.00
2024-04-08T02:31:04.272Z,2.47
2024-04-08T02:33:35.818Z,2.15
2024-04-08T02:36:06.973Z,2.15
2024-04-08T02:41:25.273Z,2.00
2024-04-08T02:44:15.828Z,1.63
2024-04-08T02:46:45.615Z,1.95
2024-04-08T02:49:19.064Z,2.90
2024-04-08T02:51:50.116Z,2.00
2024-04-08T02:54:17.836Z,2.50
2024-04-08T02:56:55.289Z,2.05
2024-04-08T02:59:26.747Z,1.95
2024-04-08T03:01:53.936Z,2.00
2024-04-08T03:04:27.078Z,2.15
2024-04-08T03:06:56.059Z,1.73
2024-04-08T03:09:26.608Z,2.20
2024-04-08T03:11:57.981Z,2.03
2024-04-08T03:14:28.206Z,2.10
2024-04-08T03:16:58.125Z,2.28
2024-04-08T03:19:28.717Z,1.88
2024-04-08T03:21:56.582Z,2.08
2024-04-08T03:24:27.863Z,2.03
2024-04-08T03:26:58.004Z,1.98
2024-04-08T03:29:48.369Z,1.90
2024-04-08T03:32:38.311Z,2.20
2024-04-08T03:35:14.222Z,1.98
2024-04-08T03:37:45.322Z,1.85
2024-04-08T03:40:17.759Z,1.80
2024-04-08T03:42:50.440Z,1.73
2024-04-08T03:45:23.899Z,1.80
2024-04-08T03:47:54.231Z,1.92
2024-04-08T03:50:46.469Z,1.92
2024-04-08T03:53:17.914Z,2.30
2024-04-08T03:55:47.785Z,3.03
2024-04-08T03:58:23.093Z,2.53
2024-04-08T04:00:53.580Z,2.67
2024-04-08T04:03:25.548Z,2.83
2024-04-08T04:05:54.321Z,3.15
2024-04-08T04:08:28.351Z,2.78
2024-04-08T04:10:57.385Z,2.83
2024-04-08T04:13:31.126Z,3.03
2024-04-08T04:16:01.520Z,3.47
2024-04-08T04:18:42.153Z,3.13
2024-04-08T04:21:30.354Z,3.35
2024-04-08T04:24:04.768Z,4.07
2024-04-08T04:26:32.394Z,3.65
2024-04-08T04:29:04.791Z,3.95
2024-04-08T04:31:43.985Z,4.35
2024-04-08T04:34:14.078Z,3.72
2024-04-08T04:36:42.554Z,3.95
2024-04-08T04:39:13.059Z,5.03
2024-04-08T04:41:40.251Z,4.43
2024-04-08T04:44:12.670Z,4.60
2024-04-08T04:46:40.067Z,4.20
2024-04-08T04:49:09.886Z,4.30
2024-04-08T04:51:37.013Z,4.75
2024-04-08T04:54:06.857Z,4.00
2024-04-08T04:56:34.049Z,4.47
2024-04-08T04:59:03.880Z,3.90
2024-04-08T05:01:33.691Z,4.13
2024-04-08T05:04:03.908Z,4.20
2024-04-08T05:06:31.074Z,4.50
2024-04-08T05:09:01.517Z,4.43
2024-04-08T05:11:28.738Z,4.72
2024-04-08T05:13:58.561Z,4.93
2024-04-08T05:16:25.801Z,5.00
2024-04-08T05:18:58.182Z,5.40
2024-04-08T05:21:25.671Z,4.78
2024-04-08T05:23:56.360Z,5.40
2024-04-08T05:26:23.688Z,5.85
2024-04-08T05:28:53.651Z,5.65
2024-04-08T05:31:20.825Z,6.28
2024-04-08T05:33:51.186Z,6.10
2024-04-08T05:36:21.118Z,6.40
2024-04-08T05:38:52.131Z,6.93
2024-04-08T05:41:20.232Z,7.78
2024-04-08T05:43:50.433Z,7.68
2024-04-08T05:46:19.683Z,6.63
2024-04-08T05:48:49.471Z,7.18
2024-04-08T05:51:17.414Z,7.13
2024-04-08T05:53:49.875Z,7.70
2024-04-08T05:56:17.323Z,7.03
2024-04-08T05:58:47.601Z,6.70
2024-04-08T06:01:14.744Z,7.00
2024-04-08T06:03:44.462Z,6.93
2024-04-08T06:06:17.758Z,7.47
2024-04-08T06:08:56.292Z,7.00
2024-04-08T06:11:23.894Z,6.22
2024-04-08T06:13:54.699Z,5.72
2024-04-08T06:16:22.242Z,5.53
2024-04-08T06:18:51.996Z,5.57
2024-04-08T06:21:19.292Z,6.30
2024-04-08T06:23:51.922Z,6.55
2024-04-08T06:26:19.352Z,5.70
2024-04-08T06:28:49.491Z,5.40
2024-04-08T06:31:16.648Z,6.40
2024-04-08T06:33:46.454Z,5.57
2024-04-08T06:36:14.109Z,5.53
2024-04-08T06:38:44.129Z,4.90
2024-04-08T06:41:14.235Z,5.43
2024-04-08T06:43:44.370Z,5.13
2024-04-08T06:46:11.866Z,5.00
2024-04-08T06:48:41.614Z,5.22
2024-04-08T06:51:08.871Z,5.00
2024-04-08T06:53:38.662Z,5.05
2024-04-08T06:56:09.678Z,5.80
2024-04-08T06:58:39.480Z,5.20
2024-04-08T07:01:10.748Z,4.30
2024-04-08T07:03:37.987Z,4.90
2024-04-08T07:06:11.579Z,4.78
2024-04-08T07:08:38.766Z,4.20
2024-04-08T07:11:08.834Z,5.28
2024-04-08T07:13:39.520Z,4.35
2024-04-08T07:16:09.598Z,4.38
2024-04-08T07:18:36.874Z,4.93
2024-04-08T07:21:06.749Z,5.05
2024-04-08T07:23:34.413Z,4.70
2024-04-08T07:26:04.359Z,4.75
2024-04-08T07:28:31.539Z,4.72
2024-04-08T07:31:04.984Z,4.47
2024-04-08T07:33:32.198Z,4.07
2024-04-08T07:36:02.029Z,4.50
2024-04-08T07:38:29.588Z,4.85
2024-04-08T07:40:59.376Z,4.35
2024-04-08T07:43:26.498Z,4.57
2024-04-08T07:45:56.318Z,4.50
2024-04-08T07:48:26.105Z,3.95
2024-04-08T07:50:57.711Z,4.60
2024-04-08T07:53:24.905Z,4.60
2024-04-08T07:55:54.995Z,4.70
2024-04-08T07:58:22.160Z,4.57
2024-04-08T08:01:00.327Z,4.55
2024-04-08T08:03:31.307Z,5.07
2024-04-08T08:06:02.419Z,4.55
2024-04-08T08:08:32.707Z,3.97
2024-04-08T08:11:04.897Z,3.92
2024-04-08T08:13:35.291Z,4.20
2024-04-08T08:16:05.288Z,4.93
2024-04-08T08:18:36.141Z,4.75
2024-04-08T08:21:07.625Z,5.13
2024-04-08T08:23:37.403Z,4.97
2024-04-08T08:26:07.762Z,5.80
2024-04-08T08:28:37.632Z,6.00
2024-04-08T08:31:07.973Z,6.18
2024-04-08T08:33:40.478Z,5.53
2024-04-08T08:36:08.182Z,6.88
2024-04-08T08:38:38.000Z,6.70
2024-04-08T08:41:07.876Z,6.60
2024-04-08T08:43:39.592Z,7.47
2024-04-08T08:46:07.050Z,7.88
2024-04-08T08:48:38.211Z,7.15
2024-04-08T08:51:11.968Z,7.13
2024-04-08T08:53:43.362Z,6.95
2024-04-08T08:56:16.300Z,5.70
2024-04-08T08:58:48.824Z,6.30
2024-04-08T09:01:17.047Z,5.93
2024-04-08T09:03:48.303Z,6.13
2024-04-08T09:06:18.183Z,5.20
2024-04-08T09:08:47.965Z,5.18
2024-04-08T09:11:17.141Z,5.05
2024-04-08T09:13:47.208Z,4.22
2024-04-08T09:16:22.260Z,3.75
2024-04-08T09:18:52.545Z,3.53
2024-04-08T09:21:24.065Z,3.30
2024-04-08T09:24:04.118Z,3.20
2024-04-08T09:26:32.422Z,3.65
2024-04-08T09:29:02.653Z,3.83
2024-04-08T09:31:30.749Z,3.80
2024-04-08T09:34:00.984Z,3.40
2024-04-08T09:36:31.660Z,3.53
2024-04-08T09:39:04.923Z,3.70
2024-04-08T09:41:34.310Z,3.90
2024-04-08T09:44:06.293Z,4.15
2024-04-08T09:46:34.025Z,4.85
2024-04-08T09:49:15.460Z,3.67
2024-04-08T09:51:52.157Z,4.00
2024-04-08T09:54:22.716Z,3.97
2024-04-08T09:56:53.428Z,4.47
2024-04-08T09:59:24.477Z,4.20
2024-04-08T10:01:55.217Z,4.03
2024-04-08T10:04:26.657Z,3.78
2024-04-08T10:06:57.398Z,3.70
2024-04-08T10:09:27.819Z,3.85
2024-04-08T10:11:55.476Z,3.17
2024-04-08T10:14:29.827Z,3.45
2024-04-08T10:17:00.526Z,3.47
2024-04-08T10:19:30.409Z,3.03
2024-04-08T10:22:06.376Z,3.47
2024-04-08T10:24:40.479Z,2.72
2024-04-08T10:27:13.611Z,2.78
2024-04-08T10:29:42.432Z,2.65
2024-04-08T10:32:13.454Z,2.75
2024-04-08T10:34:43.030Z,2.88
2024-04-08T10:37:15.538Z,2.88
2024-04-08T10:39:42.693Z,3.35
2024-04-08T10:42:20.117Z,2.67
2024-04-08T10:44:47.533Z,2.88
2024-04-08T10:47:18.745Z,3.20
2024-04-08T10:49:49.192Z,2.85
2024-04-08T10:52:19.114Z,2.80
2024-04-08T10:54:51.283Z,2.80
2024-04-08T10:57:18.573Z,2.20
2024-04-08T10:59:48.594Z,2.60
2024-04-08T11:02:16.897Z,2.45
2024-04-08T11:04:48.669Z,2.33
2024-04-08T11:07:18.617Z,2.00
2024-04-08T11:09:48.893Z,1.70
2024-04-08T11:12:16.638Z,2.08
2024-04-08T11:14:47.106Z,2.63
2024-04-08T11:17:16.627Z,2.28
2024-04-08T11:19:47.748Z,2.47
2024-04-08T11:22:15.010Z,2.63
2024-04-08T11:24:47.498Z,2.88
2024-04-08T11:27:14.781Z,2.88
2024-04-08T11:29:46.268Z,2.90
2024-04-08T11:32:14.932Z,3.40
2024-04-08T11:34:44.914Z,3.92
2024-04-08T11:37:13.679Z,4.15
2024-04-08T11:39:48.227Z,3.90
2024-04-08T11:42:15.695Z,4.45
2024-04-08T11:44:47.161Z,4.60
2024-04-08T11:47:15.881Z,5.10
2024-04-08T11:49:48.738Z,5.10
2024-04-08T11:52:15.925Z,5.72
2024-04-08T11:54:57.168Z,5.05
2024-04-08T11:57:29.278Z,5.28
2024-04-08T11:59:59.516Z,5.45
2024-04-08T12:02:29.384Z,5.40
2024-04-08T12:04:56.595Z,5.07
2024-04-08T12:07:26.774Z,5.43
2024-04-08T12:09:56.777Z,5.05
2024-04-08T12:12:26.732Z,5.40
2024-04-08T12:14:54.552Z,4.88
2024-04-08T12:17:24.714Z,4.75
2024-04-08T12:19:54.455Z,4.35
2024-04-08T12:22:24.225Z,4.70
2024-04-08T12:24:51.556Z,4.50
2024-04-08T12:27:28.819Z,4.13
2024-04-08T12:29:56.079Z,3.78
2024-04-08T12:32:26.283Z,3.53
2024-04-08T12:34:53.537Z,3.50
2024-04-08T12:37:24.060Z,3.25
2024-04-08T12:39:51.274Z,3.90
2024-04-08T12:42:23.731Z,3.30
2024-04-08T12:44:50.974Z,3.33
2024-04-08T12:47:20.927Z,2.95
2024-04-08T12:49:48.813Z,3.10
2024-04-08T12:52:20.241Z,2.70
2024-04-08T12:54:47.399Z,2.58
2024-04-08T12:57:22.111Z,2.50
2024-04-08T12:59:52.156Z,2.30
2024-04-08T13:02:25.195Z,2.53
2024-04-08T13:04:52.970Z,2.45
2024-04-08T13:07:23.397Z,2.40
2024-04-08T13:09:52.578Z,2.20
2024-04-08T13:12:29.350Z,2.22
2024-04-08T13:14:59.507Z,2.47
2024-04-08T13:17:29.735Z,2.65
2024-04-08T13:19:57.487Z,2.55
2024-04-08T13:22:27.529Z,2.22
2024-04-08T13:24:54.673Z,2.33
2024-04-08T13:27:24.740Z,2.20
2024-04-08T13:29:52.159Z,2.30
2024-04-08T13:32:25.100Z,1.92
2024-04-08T13:34:52.580Z,1.92
2024-04-08T13:37:24.791Z,1.90
2024-04-08T13:39:54.261Z,1.92
2024-04-08T13:42:24.217Z,2.40
2024-04-08T13:44:55.513Z,2.10
2024-04-08T13:47:29.421Z,4.22
2024-04-08T13:49:56.679Z,2.30
2024-04-08T13:52:26.867Z,2.28
2024-04-08T13:54:54.225Z,2.35
2024-04-08T13:57:24.102Z,2.40
2024-04-08T13:59:51.368Z,1.52
2024-04-08T14:02:21.289Z,1.45
2024-04-08T14:04:51.151Z,1.52
2024-04-08T14:07:21.170Z,2.10
2024-04-08T14:09:48.322Z,1.88
2024-04-08T14:12:18.222Z,1.63
2024-04-08T14:14:45.716Z,1.60
2024-04-08T14:17:18.382Z,1.63
2024-04-08T14:19:45.944Z,1.95
2024-04-08T14:22:19.325Z,2.00
2024-04-08T14:24:46.524Z,1.92
2024-04-08T14:27:17.411Z,1.98
2024-04-08T14:29:48.592Z,1.75
2024-04-08T14:32:22.884Z,1.63
2024-04-08T14:34:50.198Z,1.50
2024-04-08T14:37:36.482Z,1.60
2024-04-08T14:40:11.003Z,1.70
2024-04-08T14:42:41.189Z,1.30
2024-04-08T14:45:09.211Z,1.35
2024-04-08T14:47:39.869Z,1.60
2024-04-08T14:50:08.713Z,1.42
2024-04-08T14:52:42.104Z,1.20
2024-04-08T14:55:11.750Z,1.38
2024-04-08T14:57:44.918Z,1.50
2024-04-08T15:00:12.897Z,1.40
2024-04-08T15:02:43.346Z,1.60
2024-04-08T15:05:11.858Z,1.40
2024-04-08T15:07:44.754Z,1.02
2024-04-08T15:10:12.300Z,1.30
2024-04-08T15:12:44.266Z,1.40
2024-04-08T15:15:11.694Z,1.15
2024-04-08T15:17:43.095Z,1.30
2024-04-08T15:20:10.758Z,1.50
2024-04-08T15:22:43.412Z,1.35
2024-04-08T15:25:11.862Z,1.30
2024-04-08T15:27:42.222Z,1.27
2024-04-08T15:30:10.513Z,1.20
2024-04-08T15:32:40.517Z,1.10
2024-04-08T15:35:08.111Z,1.27
2024-04-08T15:37:38.033Z,1.30
2024-04-08T15:40:08.814Z,1.42
2024-04-08T15:42:40.330Z,1.58
2024-04-08T15:45:08.412Z,1.77
2024-04-08T15:47:39.041Z,1.33
2024-04-08T15:50:07.661Z,1.42
2024-04-08T15:52:37.706Z,1.30
2024-04-08T15:55:07.898Z,1.38
2024-04-08T15:57:40.142Z,1.65
2024-04-08T16:00:10.762Z,1.40
2024-04-08T16:02:42.825Z,1.20
2024-04-08T16:05:10.143Z,1.30
2024-04-08T16:07:41.303Z,1.10
2024-04-08T16:10:13.575Z,1.52
2024-04-08T16:12:43.528Z,1.67
2024-04-08T16:15:10.830Z,1.52
2024-04-08T16:17:42.480Z,1.60
2024-04-08T16:20:10.135Z,1.38
2024-04-08T16:22:55.580Z,1.30
2024-04-08T16:25:32.372Z,1.98
2024-04-08T16:28:02.867Z,2.00
2024-04-08T16:30:30.496Z,1.58
2024-04-08T16:33:01.385Z,1.52
2024-04-08T16:35:28.707Z,2.08
2024-04-08T16:37:58.762Z,1.70
2024-04-08T16:40:27.104Z,1.83
2024-04-08T16:43:01.903Z,1.50
2024-04-08T16:45:29.496Z,1.50
2024-04-08T16:47:59.481Z,1.20
2024-04-08T16:50:31.568Z,1.70
2024-04-08T16:53:04.840Z,1.42
2024-04-08T16:55:32.054Z,1.65
2024-04-08T16:58:08.546Z,2.10
2024-04-08T17:00:36.051Z,1.73
2024-04-08T17:03:07.590Z,1.70
2024-04-08T17:05:35.284Z,1.63
2024-04-08T17:08:05.364Z,1.50
2024-04-08T17:10:32.786Z,1.60
2024-04-08T17:13:05.666Z,1.90
2024-04-08T17:15:33.423Z,1.85
2024-04-08T17:18:05.286Z,1.67
2024-04-08T17:20:32.651Z,1.83
2024-04-08T17:23:02.748Z,1.83
2024-04-08T17:25:29.955Z,1.70
2024-04-08T17:27:59.742Z,2.45
2024-04-08T17:30:29.771Z,1.98
2024-04-08T17:32:59.898Z,2.05
2024-04-08T17:35:27.241Z,1.90
2024-04-08T17:37:58.257Z,1.85
2024-04-08T17:40:28.281Z,2.08
2024-04-08T17:42:58.224Z,1.92
2024-04-08T17:45:25.584Z,1.80
2024-04-08T17:47:59.503Z,2.17
2024-04-08T17:50:26.990Z,1.83
2024-04-08T17:52:57.150Z,2.20
2024-04-08T17:55:24.734Z,2.58
2024-04-08T17:57:55.110Z,2.08
2024-04-08T18:00:22.598Z,1.90
2024-04-08T18:02:52.592Z,1.95
2024-04-08T18:05:22.598Z,1.85
2024-04-08T18:07:54.029Z,2.25
2024-04-08T18:10:22.489Z,2.28
2024-04-08T18:12:52.785Z,2.08
2024-04-08T18:15:20.492Z,1.83
2024-04-08T18:18:05.530Z,2.33
2024-04-08T18:21:08.317Z,2.38
2024-04-08T18:23:38.543Z,2.38
2024-04-08T18:26:20.649Z,2.90
2024-04-08T18:28:55.373Z,2.10
2024-04-08T18:31:39.639Z,2.38
2024-04-08T18:34:23.913Z,2.67
2024-04-08T18:37:25.157Z,2.30
2024-04-08T18:40:03.384Z,1.90
2024-04-08T18:42:36.022Z,2.42
2024-04-08T18:45:13.878Z,2.70
2024-04-08T18:47:44.403Z,2.47
2024-04-08T18:50:36.392Z,2.58
2024-04-08T18:53:06.993Z,2.78
2024-04-08T18:55:47.484Z,2.63
2024-04-08T18:58:45.589Z,2.92
2024-04-08T19:01:40.277Z,3.10
2024-04-08T19:04:32.454Z,2.90
2024-04-08T19:07:01.080Z,2.50
2024-04-08T19:09:37.455Z,3.47
2024-04-08T19:12:08.752Z,2.90
2024-04-08T19:14:52.329Z,3.58
2024-04-08T19:17:20.471Z,3.13
2024-04-08T19:20:19.054Z,3.70
2024-04-08T19:23:30.420Z,3.85
2024-04-08T19:26:18.647Z,3.30
2024-04-08T19:28:50.765Z,3.60
2024-04-08T19:31:24.413Z,3.72
2024-04-08T19:33:55.790Z,3.80
2024-04-08T19:36:29.413Z,3.70
2024-04-08T19:39:00.243Z,3.90
2024-04-08T19:41:34.998Z,4.47
2024-04-08T19:44:03.418Z,5.07
2024-04-08T19:46:38.953Z,4.60
2024-04-08T19:49:08.885Z,4.95
2024-04-08T19:51:47.498Z,5.25
2024-04-08T19:54:18.285Z,5.85
2024-04-08T19:56:51.896Z,5.38
2024-04-08T19:59:20.327Z,5.57
2024-04-08T20:02:15.298Z,5.85
2024-04-08T20:04:49.928Z,6.85
2024-04-08T20:07:20.971Z,5.45
2024-04-08T20:09:50.846Z,6.32
2024-04-08T20:12:27.704Z,6.70
2024-04-08T20:15:05.544Z,6.47
2024-04-08T20:17:38.496Z,6.93
2024-04-08T20:20:09.901Z,6.97
2024-04-08T20:22:41.253Z,6.55
2024-04-08T20:25:33.889Z,6.90
2024-04-08T20:28:10.565Z,7.38
2024-04-08T20:30:38.098Z,7.85
2024-04-08T20:33:10.881Z,7.28
2024-04-08T20:35:38.419Z,8.25
2024-04-08T20:38:09.583Z,7.90
2024-04-08T20:40:38.525Z,7.13
2024-04-08T20:43:24.838Z,8.25
2024-04-08T20:46:00.679Z,7.40
2024-04-08T20:48:30.009Z,7.70
2024-04-08T20:51:04.853Z,8.00
2024-04-08T20:53:33.268Z,7.78
2024-04-08T20:56:04.576Z,8.85
2024-04-08T20:58:35.134Z,9.55
2024-04-08T21:01:12.023Z,9.50
2024-04-08T21:03:40.389Z,8.63
2024-04-08T21:06:13.232Z,9.07
2024-04-08T21:08:42.749Z,8.70
2024-04-08T21:11:15.352Z,8.20
2024-04-08T21:13:45.285Z,8.70
2024-04-08T21:16:16.657Z,8.85
2024-04-08T21:18:44.544Z,9.13
2024-04-08T21:21:16.410Z,8.65
2024-04-08T21:23:43.992Z,9.38
2024-04-08T21:26:28.711Z,10.48
2024-04-08T21:29:01.765Z,9.95
2024-04-08T21:31:29.815Z,9.98
2024-04-08T21:34:00.349Z,10.20
2024-04-08T21:36:28.683Z,10.25
2024-04-08T21:38:58.803Z,10.63
2024-04-08T21:41:26.249Z,9.90
2024-04-08T21:44:07.543Z,10.52
2024-04-08T21:46:48.631Z,10.00
2024-04-08T21:49:23.111Z,10.35
2024-04-08T21:51:52.436Z,10.77
2024-04-08T21:54:23.069Z,11.52
2024-04-08T21:56:52.404Z,10.93
2024-04-08T21:59:22.752Z,11.40
2024-04-08T22:01:53.505Z,12.48
2024-04-08T22:04:24.246Z,10.82
2024-04-08T22:06:51.577Z,10.85
2024-04-08T22:09:21.752Z,4.80
2024-04-08T22:12:09.453Z,3.35
2024-04-08T22:14:40.743Z,2.10
2024-04-08T22:17:12.452Z,1.95
2024-04-08T22:19:42.346Z,1.48
2024-04-08T22:22:09.586Z,1.75
2024-04-08T22:24:39.441Z,1.45
2024-04-08T22:27:06.833Z,1.35
2024-04-08T22:29:37.039Z,1.40
2024-04-08T22:32:05.015Z,1.48
2024-04-08T22:34:37.639Z,1.30
2024-04-08T22:37:05.239Z,2.25
2024-04-08T22:39:37.093Z,1.30
2024-04-08T22:42:07.098Z,1.10
2024-04-08T22:44:36.944Z,1.30
2024-04-08T22:47:04.455Z,1.70
2024-04-08T22:49:37.087Z,1.40
2024-04-08T22:52:04.928Z,1.38
2024-04-08T22:54:34.737Z,1.35
2024-04-08T22:57:03.279Z,1.20
2024-04-08T22:59:33.353Z,1.20
2024-04-08T23:02:00.748Z,1.10
2024-04-08T23:04:43.887Z,1.23
2024-04-08T23:07:33.943Z,1.00
2024-04-08T23:10:05.314Z,1.30
2024-04-08T23:12:33.081Z,1.00
2024-04-08T23:15:03.399Z,1.00
2024-04-08T23:17:31.198Z,1.10
2024-04-08T23:20:01.886Z,1.05
2024-04-08T23:22:31.939Z,1.00
2024-04-08T23:25:01.982Z,1.08
2024-04-08T23:27:29.478Z,1.00
2024-04-08T23:29:59.897Z,1.20
2024-04-08T23:32:27.509Z,0.88
2024-04-08T23:34:57.860Z,0.95
2024-04-08T23:37:25.608Z,0.93
2024-04-08T23:39:59.583Z,1.17
2024-04-08T23:42:27.069Z,1.02
2024-04-08T23:44:58.466Z,1.00
2024-04-08T23:47:27.562Z,1.10
2024-04-08T23:49:57.527Z,0.82
2024-04-08T23:52:25.465Z,1.15
2024-04-08T23:54:59.785Z,1.05
2024-04-08T23:57:27.351Z,0.90
